Athol Springs, NY

6:57 AM EDT on March 30, 2015 (GMT -0400)
Hamburg near McKinley Mall | | Change Station
CLOSE
Current Station
Personal Weather Station
Location: Buffalo, NY
Elevation: 656 ft
Nearby Weather Stations

Elev 656 ft 42.79 °N, 78.81 °W | Updated 2 minutes ago

Overcast
Overcast
38.5 °F
Feels Like 31 °F
N
13.0
Wind Variable Wind from WSW
Gusts 23.0 mph

Today
High -- | Low -- °F
--% Chance of Precip.
Yesterday
High -- | Low -- °F
Precip. -- in
7:01 AM 7:39 PM
Waxing Gibbous, 79% visible
Pressure 29.66 in
Visibility 10.0 miles
Clouds Few 1100 ft
Scattered Clouds 2300 ft
Overcast 3500 ft
Windchill 31 °F
Dew Point 34 °F
Humidity 85%
Rainfall 0.02 in
Snow Depth Not available.
UV 0 out of 12
Pollen 3.80 out of 12
Air Quality Not available.
Flu Activity Not available.
SPECI KBUF 301043Z 24016G27KT 10SM FEW011 SCT023 OVC035 03/00 A2966 RMK AO2 PK WND 23032/1007 RAE42SNE42 P0000 T00280000 $

More Conditions Fewer Conditions

Pressure 29.66 in
Visibility 10.0 miles
Clouds Few 1100 ft
Scattered Clouds 2300 ft
Overcast 3500 ft
Windchill 31 °F
Dew Point 34 °F
Humidity 85%
Rainfall 0.02 in
Snow Depth Not available.
UV 0 out of 12
Pollen 3.80 out of 12
Air Quality Not available.
Flu Activity Not available.
SPECI KBUF 301043Z 24016G27KT 10SM FEW011 SCT023 OVC035 03/00 A2966 RMK AO2 PK WND 23032/1007 RAE42SNE42 P0000 T00280000 $

More Conditions Fewer Conditions

10-Day Weather Forecast

Almanac

Astronomy

Mar. 30, 2015 Rise Set
Actual Time
Civil Twilight
Nautical Twilight
Astronomical Twilight
Moon
Length of Visible Light
Length of Day
Tomorrow will be .
, % of the Moon is Illuminated

Today's Extremes

State Highs State Lows

Community

WunderPhotos

Upload Photos

1,809,455 photos uploaded!

WunderBlogs® & News

Nearby

Air Quality

  Air Quality AQ Index Pollutant
Not available.

Snow Depth

Station Depth Elevation

Earthquake Activity

City Distance Mag. Time & Date
Minimum magnitude displayed is 2.5.

Coastal Water Temperatures

Place Temperature

Stations

Nearby Weather Stations

Station Location Temp. Windchill Dew Point Humidity Wind Precip. Elev Updated Type